Time;durP1;ratioP1;P1;durP2;ratioP2;P2;SDS_P1;SDS_P2;PMS_P1;PMS_P2;Temp;Humidity;BMP_temperature;BMP_pressure;BME280_temperature;BME280_humidity;BME280_pressure;Samples;Min_cycle;Max_cycle;Signal;HPM_P1;HPM_P2
2022/06/09 00:01:49;;;;;;;0.65;0.65;;;19.10;56.20;;;;;;20629;6760;306593;-89
2022/06/09 00:04:28;;;;;;;0.70;0.70;;;19.40;55.10;;;;;;20691;6749;304706;-88
2022/06/09 00:07:15;;;;;;;1.17;0.80;;;19.60;54.60;;;;;;20563;6761;279761;-88
2022/06/09 00:09:50;;;;;;;0.70;0.70;;;19.80;54.60;;;;;;20645;6785;276662;-87
2022/06/09 00:12:26;;;;;;;0.57;0.57;;;19.90;54.00;;;;;;20884;6769;120270;-87
2022/06/09 00:15:03;;;;;;;1.23;0.53;;;19.60;54.30;;;;;;20908;6758;118806;-87
2022/06/09 00:17:39;;;;;;;0.93;0.83;;;19.20;54.90;;;;;;20520;6769;306989;-88
2022/06/09 00:20:14;;;;;;;0.67;0.67;;;19.30;55.30;;;;;;20888;6773;117540;-88
2022/06/09 00:22:49;;;;;;;2.27;0.80;;;19.10;55.30;;;;;;20919;6758;116508;-87
2022/06/09 00:25:24;;;;;;;0.93;0.80;;;18.90;55.80;;;;;;20919;6769;67776;-87
2022/06/09 00:28:00;;;;;;;4.03;0.80;;;18.60;56.30;;;;;;20676;6842;117491;-87
2022/06/09 00:30:35;;;;;;;1.23;1.10;;;18.50;56.90;;;;;;20834;6790;117257;-87
2022/06/09 00:33:11;;;;;;;1.87;1.00;;;18.40;57.40;;;;;;20902;6780;67263;-86
2022/06/09 00:35:47;;;;;;;1.05;1.00;;;18.30;57.80;;;;;;20638;6780;308673;-87
2022/06/09 00:38:23;;;;;;;1.27;0.90;;;18.60;59.00;;;;;;20941;6757;118246;-87
2022/06/09 00:40:59;;;;;;;0.90;0.60;;;18.60;58.40;;;;;;20935;6757;116254;-88
2022/06/09 00:43:34;;;;;;;0.90;0.90;;;18.50;58.60;;;;;;20938;6757;116509;-87
2022/06/09 00:46:12;;;;;;;1.30;0.90;;;18.20;59.00;;;;;;20941;6739;67948;-86
2022/06/09 00:48:51;;;;;;;0.87;0.60;;;18.20;59.00;;;;;;20846;6742;117140;-86
2022/06/09 00:51:33;;;;;;;1.48;0.90;;;18.10;59.10;;;;;;20632;6756;337874;-89
2022/06/09 00:54:12;;;;;;;0.90;0.90;;;18.50;60.40;;;;;;20623;6783;307805;-86
2022/06/09 00:56:50;;;;;;;1.30;0.80;;;18.90;58.70;;;;;;20507;6759;281871;-88
2022/06/09 00:59:26;;;;;;;0.82;0.82;;;19.10;58.00;;;;;;20579;6766;310371;-86
2022/06/09 01:02:01;;;;;;;0.60;0.60;;;19.30;56.80;;;;;;20638;6759;279493;-87
2022/06/09 01:04:37;;;;;;;0.87;0.70;;;19.40;56.20;;;;;;20611;6759;308603;-87
2022/06/09 01:07:13;;;;;;;1.37;0.83;;;19.50;55.70;;;;;;20739;6759;117496;-87
2022/06/09 01:09:48;;;;;;;1.70;0.60;;;19.20;56.00;;;;;;20795;6767;117271;-87
2022/06/09 01:12:30;;;;;;;0.97;0.63;;;18.80;56.80;;;;;;20820;6762;117468;-86
2022/06/09 01:15:09;;;;;;;2.40;1.00;;;18.50;57.60;;;;;;20601;6768;277369;-86
2022/06/09 01:17:51;;;;;;;1.27;0.87;;;18.60;59.20;;;;;;20460;6770;312159;-86
2022/06/09 01:20:40;;;;;;;0.97;0.80;;;18.90;58.80;;;;;;20821;6765;116929;-86
2022/06/09 01:23:35;;;;;;;1.48;0.85;;;18.70;58.60;;;;;;20637;6756;332307;-86
2022/06/09 01:26:35;;;;;;;0.50;0.50;;;18.60;58.90;;;;;;20795;6751;117941;-86
2022/06/09 01:29:30;;;;;;;4.23;0.80;;;18.60;58.90;;;;;;20862;6751;119190;-86
2022/06/09 01:32:10;;;;;;;1.33;1.10;;;18.20;59.40;;;;;;20193;6822;336005;-86
2022/06/09 01:35:03;;;;;;;2.90;1.10;;;18.30;60.00;;;;;;20788;6771;126714;-86
2022/06/09 01:37:39;;;;;;;1.23;0.90;;;18.30;59.90;;;;;;20419;6766;313890;-87
2022/06/09 01:40:16;;;;;;;0.80;0.80;;;18.50;60.00;;;;;;20575;6775;306982;-87
2022/06/09 01:42:51;;;;;;;1.00;1.00;;;18.70;59.20;;;;;;20627;6756;307000;-87
2022/06/09 01:45:40;;;;;;;0.70;0.70;;;18.90;59.00;;;;;;20625;6771;336301;-86
2022/06/09 01:48:16;;;;;;;0.80;0.80;;;19.00;58.60;;;;;;20787;6792;116337;-87
2022/06/09 01:50:56;;;;;;;1.05;1.00;;;18.80;59.40;;;;;;20526;6784;303694;-87
2022/06/09 01:53:35;;;;;;;3.70;1.10;;;18.80;59.40;;;;;;20760;6784;117159;-86
2022/06/09 01:56:15;;;;;;;1.10;0.80;;;18.40;60.10;;;;;;20676;6804;117806;-86
2022/06/09 01:59:06;;;;;;;1.23;0.90;;;18.40;60.10;;;;;;20807;6761;121162;-86
2022/06/09 02:01:45;;;;;;;2.73;1.20;;;18.40;61.20;;;;;;20597;6759;312006;-87
2022/06/09 02:04:20;;;;;;;1.17;1.17;;;18.30;61.10;;;;;;20765;6769;118187;-86
2022/06/09 02:06:55;;;;;;;1.80;1.17;;;18.30;60.60;;;;;;20682;6766;117979;-86
2022/06/09 02:09:31;;;;;;;1.10;0.90;;;18.10;60.90;;;;;;20776;6777;117240;-87
2022/06/09 02:12:07;;;;;;;2.22;1.27;;;17.90;61.20;;;;;;20582;6771;278795;-86
2022/06/09 02:14:46;;;;;;;2.43;1.30;;;18.10;61.50;;;;;;20544;6777;311189;-86
2022/06/09 02:17:21;;;;;;;1.17;1.17;;;18.40;60.70;;;;;;20476;6777;341875;-86
2022/06/09 02:19:58;;;;;;;1.23;1.00;;;18.60;60.00;;;;;;20872;6764;117094;-86
2022/06/09 02:22:35;;;;;;;1.27;1.13;;;18.50;59.90;;;;;;20710;6734;276588;-87
2022/06/09 02:25:11;;;;;;;1.15;1.05;;;18.50;60.00;;;;;;20713;6734;276651;-86
2022/06/09 02:27:46;;;;;;;0.80;0.80;;;18.70;59.30;;;;;;20761;6734;117730;-87
2022/06/09 02:30:22;;;;;;;1.50;1.20;;;18.50;59.50;;;;;;20707;6734;278842;-86
2022/06/09 02:32:57;;;;;;;0.97;0.97;;;18.50;59.50;;;;;;20690;6734;276796;-86
2022/06/09 02:35:34;;;;;;;1.90;1.00;;;18.60;59.20;;;;;;20701;6734;305632;-86
2022/06/09 02:38:11;;;;;;;1.07;1.00;;;18.80;58.70;;;;;;20916;6734;116978;-86
2022/06/09 02:40:46;;;;;;;1.80;0.80;;;18.50;58.90;;;;;;20896;6734;117897;-87
2022/06/09 02:43:22;;;;;;;1.70;1.00;;;18.20;59.90;;;;;;20916;6734;119895;-86
2022/06/09 02:46:00;;;;;;;1.60;1.20;;;17.90;60.60;;;;;;20674;6734;292375;-86
2022/06/09 02:48:33;;;;;;;1.62;1.10;;;18.00;60.90;;;;;;20700;6734;306524;-86
2022/06/09 02:51:26;;;;;;;0.97;0.97;;;18.40;60.30;;;;;;20912;6734;117617;-86
2022/06/09 02:54:00;;;;;;;1.67;0.80;;;18.30;60.10;;;;;;20914;6734;117135;-86
2022/06/09 02:56:37;;;;;;;1.67;1.20;;;17.70;61.20;;;;;;20811;6734;118145;-86
2022/06/09 02:59:12;;;;;;;3.70;1.30;;;17.70;61.20;;;;;;20849;6752;119674;-88
2022/06/09 03:01:48;;;;;;;1.27;1.27;;;17.50;61.70;;;;;;20900;6753;119950;-88
2022/06/09 03:04:23;;;;;;;1.87;1.30;;;17.40;62.00;;;;;;20681;6753;306143;-87
2022/06/09 03:06:59;;;;;;;1.30;1.30;;;17.70;62.70;;;;;;20721;6753;122410;-86
2022/06/09 03:09:34;;;;;;;1.50;1.40;;;17.70;62.10;;;;;;20866;6753;117173;-86
2022/06/09 03:12:10;;;;;;;1.37;1.27;;;17.60;62.40;;;;;;20877;6753;117304;-86
2022/06/09 03:14:46;;;;;;;1.67;1.58;;;17.40;62.70;;;;;;20638;6753;280950;-88
2022/06/09 03:17:21;;;;;;;1.50;1.40;;;17.70;63.00;;;;;;20512;6753;306994;-86
2022/06/09 03:19:57;;;;;;;1.33;1.30;;;18.10;61.70;;;;;;20855;6753;121481;-87
2022/06/09 03:22:33;;;;;;;1.60;1.50;;;18.10;61.30;;;;;;20657;6753;306789;-86
2022/06/09 03:25:09;;;;;;;2.53;1.70;;;18.20;61.40;;;;;;20654;6753;278291;-86
2022/06/09 03:27:45;;;;;;;1.80;1.50;;;18.40;60.60;;;;;;20504;6753;307164;-87
2022/06/09 03:30:21;;;;;;;1.33;1.23;;;18.60;59.90;;;;;;20891;6753;117186;-87
2022/06/09 03:32:56;;;;;;;1.30;1.30;;;18.40;60.00;;;;;;20944;6753;116362;-87
2022/06/09 03:35:32;;;;;;;1.10;1.10;;;18.10;60.70;;;;;;20973;6753;116630;-86
2022/06/09 03:38:08;;;;;;;1.30;1.20;;;18.00;61.60;;;;;;20670;6752;275993;-86
2022/06/09 03:40:48;;;;;;;1.15;1.12;;;18.00;61.60;;;;;;20630;6752;327951;-86
2022/06/09 03:43:21;;;;;;;1.40;1.30;;;18.30;60.20;;;;;;20651;6752;307428;-86
2022/06/09 03:45:56;;;;;;;1.40;1.30;;;18.50;59.30;;;;;;20624;6752;308897;-86
2022/06/09 03:48:32;;;;;;;1.83;1.10;;;18.70;58.80;;;;;;20847;6757;117680;-86
2022/06/09 03:51:07;;;;;;;0.90;0.70;;;18.50;59.10;;;;;;20822;6761;117046;-86
2022/06/09 03:53:43;;;;;;;1.10;1.10;;;18.10;60.00;;;;;;20861;6754;117058;-86
2022/06/09 03:56:18;;;;;;;1.52;1.10;;;17.80;60.50;;;;;;20606;6754;279214;-86
2022/06/09 03:58:54;;;;;;;1.70;1.03;;;17.90;60.50;;;;;;20864;6734;117916;-86
2022/06/09 04:01:30;;;;;;;0.80;0.80;;;17.90;60.50;;;;;;20871;6754;117134;-86
2022/06/09 04:04:06;;;;;;;1.53;0.90;;;17.70;60.80;;;;;;20847;6754;117595;-86
2022/06/09 04:06:43;;;;;;;1.90;0.93;;;17.40;62.30;;;;;;20830;6732;118286;-87
2022/06/09 04:09:18;;;;;;;1.87;1.00;;;17.30;61.50;;;;;;20660;6766;308042;-86
2022/06/09 04:11:55;;;;;;;1.20;1.10;;;17.60;61.10;;;;;;20842;6781;117687;-86
2022/06/09 04:14:31;;;;;;;0.63;0.63;;;17.60;60.70;;;;;;20879;6747;116910;-86
2022/06/09 04:17:07;;;;;;;1.37;0.83;;;17.50;61.10;;;;;;20715;6758;117514;-86
2022/06/09 04:19:43;;;;;;;1.00;1.00;;;17.30;61.40;;;;;;20766;6778;118234;-86
2022/06/09 04:22:18;;;;;;;0.80;0.80;;;17.20;61.80;;;;;;20776;6793;117164;-87
2022/06/09 04:24:55;;;;;;;0.70;0.70;;;17.10;62.00;;;;;;20844;6767;118296;-86
2022/06/09 04:27:30;;;;;;;1.30;1.13;;;17.00;62.10;;;;;;20797;6747;121262;-86
2022/06/09 04:30:05;;;;;;;1.70;1.20;;;17.00;62.30;;;;;;20665;6740;279843;-87
2022/06/09 04:32:41;;;;;;;1.67;1.20;;;17.30;61.50;;;;;;20575;6770;309753;-86
2022/06/09 04:35:17;;;;;;;2.08;1.37;;;17.80;60.40;;;;;;20602;6775;305439;-86
2022/06/09 04:38:03;;;;;;;2.60;1.40;;;18.10;59.20;;;;;;20429;6772;309345;-86
2022/06/09 04:40:38;;;;;;;2.40;1.23;;;18.30;58.50;;;;;;20744;6786;117948;-86
2022/06/09 04:43:13;;;;;;;1.40;1.30;;;18.10;58.80;;;;;;20530;6800;307673;-87
2022/06/09 04:45:49;;;;;;;3.13;1.40;;;18.10;58.60;;;;;;20821;6752;117083;-86
2022/06/09 04:48:24;;;;;;;1.90;1.30;;;18.00;59.10;;;;;;20575;6772;280240;-86
2022/06/09 04:51:00;;;;;;;1.40;1.30;;;18.00;58.80;;;;;;20541;6783;310012;-87
2022/06/09 04:53:36;;;;;;;1.40;1.30;;;18.50;58.60;;;;;;20596;6776;308198;-86
2022/06/09 04:56:12;;;;;;;2.12;1.42;;;18.50;58.10;;;;;;20575;6763;337890;-86
2022/06/09 04:58:48;;;;;;;1.10;1.10;;;18.70;57.50;;;;;;20871;6757;127148;-87
2022/06/09 05:01:23;;;;;;;1.47;1.00;;;18.40;57.80;;;;;;20903;6755;117078;-86
2022/06/09 05:03:59;;;;;;;1.80;1.50;;;18.10;58.70;;;;;;20604;6774;278650;-87
2022/06/09 05:06:35;;;;;;;1.67;1.50;;;18.40;58.00;;;;;;20573;6740;332904;-86
2022/06/09 05:09:11;;;;;;;1.70;1.30;;;18.40;58.00;;;;;;20699;6738;306120;-86
2022/06/09 05:11:46;;;;;;;1.93;1.30;;;18.60;57.00;;;;;;20914;6738;118708;-86
2022/06/09 05:14:22;;;;;;;2.00;1.20;;;18.40;57.30;;;;;;20877;6746;117107;-86
2022/06/09 05:16:57;;;;;;;1.00;0.90;;;18.00;58.20;;;;;;20840;6738;117948;-86
2022/06/09 05:19:34;;;;;;;2.20;1.50;;;17.90;58.70;;;;;;20753;6723;276667;-86
2022/06/09 05:22:10;;;;;;;1.73;1.52;;;17.90;58.70;;;;;;20716;6731;335374;-86
2022/06/09 05:24:46;;;;;;;1.93;1.43;;;18.30;57.70;;;;;;20705;6731;309803;-86
2022/06/09 05:27:21;;;;;;;2.63;1.40;;;18.60;57.10;;;;;;20571;6738;338204;-87
2022/06/09 05:29:57;;;;;;;1.87;1.30;;;18.80;56.70;;;;;;20946;6731;117474;-87
2022/06/09 05:32:34;;;;;;;2.03;1.37;;;18.70;57.10;;;;;;20667;6749;306986;-86
2022/06/09 05:35:10;;;;;;;1.97;1.40;;;18.80;56.70;;;;;;20697;6743;305636;-87
2022/06/09 05:46:22;;;;;;;1.60;1.40;;;18.70;57.70;;;;;;18757;7415;334108;-86
2022/06/09 05:48:57;;;;;;;1.70;1.60;;;19.00;58.10;;;;;;20086;6794;118760;-86
2022/06/09 05:51:33;;;;;;;2.70;1.70;;;19.10;58.10;;;;;;20661;6748;307294;-86
2022/06/09 05:54:09;;;;;;;2.28;1.50;;;19.90;56.40;;;;;;20687;6752;308537;-86
2022/06/09 05:56:46;;;;;;;1.80;1.50;;;19.90;56.40;;;;;;20570;6743;310388;-86
2022/06/09 05:59:22;;;;;;;2.83;1.00;;;20.30;55.50;;;;;;20842;6761;117646;-87
2022/06/09 06:01:57;;;;;;;3.83;1.30;;;20.20;55.40;;;;;;20842;6775;117463;-86
2022/06/09 06:04:33;;;;;;;1.83;1.10;;;20.00;55.50;;;;;;20854;6773;117829;-87
2022/06/09 06:07:09;;;;;;;2.47;1.07;;;19.80;55.70;;;;;;20717;6775;116395;-86
2022/06/09 06:09:45;;;;;;;3.33;1.42;;;19.70;56.50;;;;;;20641;6780;277476;-87
2022/06/09 06:12:22;;;;;;;1.70;1.20;;;19.90;53.40;;;;;;20812;6787;117167;-87
2022/06/09 06:14:58;;;;;;;1.97;1.37;;;20.10;51.50;;;;;;20579;6787;277901;-89
2022/06/09 06:17:33;;;;;;;2.40;1.40;;;20.10;51.50;;;;;;20495;6748;309681;-86
2022/06/09 06:20:09;;;;;;;3.00;1.60;;;20.40;51.60;;;;;;20611;6755;307811;-86
2022/06/09 06:22:45;;;;;;;4.53;1.52;;;20.70;51.60;;;;;;20713;6757;330246;-86
2022/06/09 06:25:21;;;;;;;1.53;1.33;;;20.90;52.40;;;;;;20823;6796;67975;-89
2022/06/09 06:27:57;;;;;;;1.47;1.37;;;20.90;52.40;;;;;;20664;6796;116406;-86
2022/06/09 06:30:34;;;;;;;2.70;1.40;;;20.90;51.60;;;;;;20634;6765;306750;-86
2022/06/09 06:33:10;;;;;;;1.45;1.05;;;21.30;50.30;;;;;;20669;6760;338753;-87
2022/06/09 06:35:46;;;;;;;2.23;1.23;;;21.30;50.20;;;;;;20912;6748;117207;-88
2022/06/09 06:38:22;;;;;;;2.13;1.10;;;21.20;50.80;;;;;;20863;6769;118023;-87
2022/06/09 06:40:57;;;;;;;2.77;1.50;;;20.90;51.50;;;;;;20864;6764;118652;-87
2022/06/09 06:43:34;;;;;;;4.67;1.30;;;20.70;52.00;;;;;;20862;6762;117727;-87
2022/06/09 06:46:10;;;;;;;2.70;1.03;;;20.60;52.20;;;;;;20765;6782;117473;-87
2022/06/09 06:48:46;;;;;;;2.20;1.33;;;20.70;51.00;;;;;;20626;6782;309698;-87
2022/06/09 06:51:22;;;;;;;3.93;1.30;;;20.60;50.90;;;;;;20868;6768;117182;-88
2022/06/09 06:53:57;;;;;;;3.13;1.13;;;20.70;51.60;;;;;;20860;6768;117483;-87
2022/06/09 06:56:33;;;;;;;2.93;1.50;;;20.70;52.70;;;;;;20715;6788;118240;-88
2022/06/09 06:59:08;;;;;;;6.70;1.30;;;21.00;53.40;;;;;;20778;6777;117505;-87
2022/06/09 07:01:44;;;;;;;2.42;1.33;;;21.70;50.70;;;;;;20617;6769;277198;-88
2022/06/09 07:04:20;;;;;;;4.15;1.50;;;21.70;50.60;;;;;;20682;6746;306560;-88
2022/06/09 07:07:00;;;;;;;2.60;1.37;;;22.50;48.40;;;;;;20521;6746;306536;-87
2022/06/09 07:09:36;;;;;;;2.13;1.30;;;23.30;47.60;;;;;;20861;6809;117815;-86
2022/06/09 07:12:12;;;;;;;3.37;1.53;;;23.60;48.20;;;;;;20653;6753;281089;-86
2022/06/09 07:14:47;;;;;;;3.40;1.50;;;23.80;46.50;;;;;;20682;6740;276307;-87
2022/06/09 07:17:24;;;;;;;1.95;1.33;;;24.20;44.20;;;;;;20489;6750;338554;-86
2022/06/09 07:20:00;;;;;;;1.77;1.10;;;24.30;44.50;;;;;;20895;6750;117482;-86
2022/06/09 07:22:36;;;;;;;2.77;1.20;;;24.30;44.50;;;;;;20894;6737;117515;-86
2022/06/09 07:25:12;;;;;;;2.17;1.30;;;24.00;45.50;;;;;;20887;6747;119494;-87
2022/06/09 07:27:48;;;;;;;1.83;1.10;;;23.80;45.80;;;;;;20513;6747;311716;-86
2022/06/09 07:30:24;;;;;;;1.40;1.30;;;23.50;43.50;;;;;;20883;6747;116967;-87
2022/06/09 07:33:01;;;;;;;2.80;1.17;;;23.40;43.30;;;;;;20868;6747;117396;-86
2022/06/09 07:35:36;;;;;;;1.90;1.30;;;23.00;44.20;;;;;;20865;6751;116943;-86
2022/06/09 07:38:12;;;;;;;1.73;1.10;;;22.80;45.10;;;;;;20801;6768;119218;-86
2022/06/09 07:40:49;;;;;;;4.20;1.60;;;22.80;45.70;;;;;;20592;6774;306667;-86
2022/06/09 07:43:26;;;;;;;2.63;1.30;;;23.10;43.80;;;;;;20642;6759;281218;-86
2022/06/09 07:46:01;;;;;;;3.17;1.27;;;23.60;43.30;;;;;;20564;6774;340960;-86
2022/06/09 07:48:37;;;;;;;3.47;1.40;;;24.00;42.50;;;;;;20580;6774;280342;-86
2022/06/09 07:51:13;;;;;;;3.20;1.37;;;24.50;42.20;;;;;;20678;6744;306638;-86
2022/06/09 07:53:49;;;;;;;2.77;1.50;;;24.40;42.10;;;;;;20843;6762;117413;-86
2022/06/09 07:56:25;;;;;;;2.47;1.50;;;24.40;42.50;;;;;;20564;6759;310343;-86
2022/06/09 07:59:01;;;;;;;2.42;1.30;;;24.40;41.40;;;;;;20651;6747;331923;-86
2022/06/09 08:01:38;;;;;;;3.13;1.20;;;24.60;40.50;;;;;;20894;6753;117748;-87
2022/06/09 08:04:15;;;;;;;4.07;1.50;;;24.40;41.20;;;;;;20893;6752;117151;-86
2022/06/09 08:06:49;;;;;;;2.43;1.03;;;24.10;41.70;;;;;;20775;6763;117898;-87
2022/06/09 08:09:35;;;;;;;;;;;;;;;;;;;;;
2022/06/09 08:12:01;;;;;;;2.43;1.40;;;23.90;41.40;;;;;;20643;6758;305806;-87
2022/06/09 08:14:36;;;;;;;2.70;1.03;;;23.90;41.40;;;;;;20885;6755;117351;-86
2022/06/09 08:17:12;;;;;;;2.30;1.00;;;24.00;41.70;;;;;;20771;6755;117930;-87
2022/06/09 08:19:49;;;;;;;2.00;1.30;;;23.90;41.60;;;;;;20699;6755;276349;-87
2022/06/09 08:22:27;;;;;;;2.53;1.37;;;24.20;40.70;;;;;;20683;6754;308422;-87
2022/06/09 08:25:01;;;;;;;1.50;1.10;;;24.60;40.40;;;;;;20847;6754;119327;-87
2022/06/09 08:27:37;;;;;;;2.65;1.20;;;24.70;40.80;;;;;;20473;6755;310166;-88
2022/06/09 08:30:13;;;;;;;1.20;0.77;;;25.00;39.30;;;;;;20861;6755;119429;-89
2022/06/09 08:32:49;;;;;;;3.23;1.20;;;25.10;39.90;;;;;;20822;6761;123270;-87
2022/06/09 08:35:25;;;;;;;1.80;0.77;;;24.90;40.00;;;;;;20834;6762;118597;-87
2022/06/09 08:38:05;;;;;;;2.67;1.23;;;24.70;40.20;;;;;;20678;6815;119601;-87
2022/06/09 08:40:57;;;;;;;1.17;0.87;;;24.60;40.60;;;;;;20811;6752;143593;-87
2022/06/09 08:43:50;;;;;;;2.20;1.00;;;24.60;40.40;;;;;;20668;6747;308648;-88
2022/06/09 08:46:45;;;;;;;3.13;0.97;;;24.90;38.90;;;;;;20835;6747;117023;-88
2022/06/09 08:49:45;;;;;;;1.50;1.00;;;25.40;39.60;;;;;;20649;6755;306672;-88
2022/06/09 08:52:33;;;;;;;2.33;1.10;;;25.30;38.80;;;;;;20908;6737;118008;-88
2022/06/09 08:55:19;;;;;;;1.13;0.90;;;25.40;39.00;;;;;;20658;6752;306637;-88
2022/06/09 08:58:00;;;;;;;2.83;1.15;;;25.60;37.50;;;;;;20485;6737;341840;-88
2022/06/09 09:00:36;;;;;;;1.63;1.10;;;26.00;37.20;;;;;;20676;6758;306115;-89
2022/06/09 09:03:23;;;;;;;2.57;1.00;;;26.40;36.30;;;;;;20876;6761;117260;-89
2022/06/09 09:05:59;;;;;;;1.75;1.00;;;26.60;36.80;;;;;;20629;6752;309484;-88
2022/06/09 09:08:35;;;;;;;2.30;1.30;;;26.70;34.30;;;;;;20658;6752;276380;-89
2022/06/09 09:11:39;;;;;;;2.00;1.20;;;26.70;34.50;;;;;;20588;6772;301927;-88
2022/06/09 09:14:21;;;;;;;2.70;1.02;;;26.60;34.00;;;;;;20643;6772;307995;-90
2022/06/09 09:17:19;;;;;;;2.10;0.90;;;26.30;33.90;;;;;;20734;6829;124470;-89
2022/06/09 09:20:14;;;;;;;1.67;0.73;;;25.90;35.50;;;;;;20958;6757;66251;-88
2022/06/09 09:23:11;;;;;;;1.23;0.80;;;25.70;36.70;;;;;;20867;6757;117713;-89
2022/06/09 09:26:03;;;;;;;1.57;1.10;;;25.60;37.50;;;;;;20620;6757;306535;-88
2022/06/09 09:28:45;;;;;;;1.50;0.80;;;25.80;35.40;;;;;;20832;6757;117666;-88
2022/06/09 09:31:30;;;;;;;2.37;0.90;;;25.50;35.90;;;;;;20639;6757;307144;-89
2022/06/09 09:34:06;;;;;;;2.20;1.05;;;25.40;35.60;;;;;;20314;6811;308684;-88
2022/06/09 09:36:41;;;;;;;1.87;0.90;;;25.60;35.70;;;;;;20754;6765;116907;-88
2022/06/09 09:39:17;;;;;;;2.37;1.07;;;25.40;36.10;;;;;;20884;6747;117627;-88
2022/06/09 09:41:56;;;;;;;1.10;0.70;;;25.10;36.80;;;;;;20871;6751;118083;-88
2022/06/09 09:44:31;;;;;;;1.63;0.87;;;25.00;37.50;;;;;;20918;6789;117197;-88
2022/06/09 09:47:07;;;;;;;1.03;0.80;;;25.10;37.90;;;;;;20561;6732;307228;-88
2022/06/09 09:49:43;;;;;;;1.83;0.93;;;25.60;35.10;;;;;;20931;6732;117689;-88
2022/06/09 09:52:32;;;;;;;1.93;0.90;;;26.00;36.00;;;;;;20715;6732;306283;-88
2022/06/09 09:55:20;;;;;;;2.00;0.85;;;26.30;34.00;;;;;;20702;6732;305801;-88
2022/06/09 09:58:15;;;;;;;1.57;0.97;;;26.50;33.80;;;;;;20515;6860;121767;-89
2022/06/09 10:01:00;;;;;;;2.33;1.10;;;26.20;34.50;;;;;;20680;6732;285329;-89
2022/06/09 10:09:50;;;;;;;2.50;1.07;;;26.20;35.50;;;;;;20796;6733;304528;-90
2022/06/09 10:12:29;;;;;;;2.45;0.95;;;26.30;34.70;;;;;;20785;6733;278850;-89
2022/06/09 10:15:11;;;;;;;1.93;1.00;;;26.40;33.70;;;;;;20996;6732;122052;-90
2022/06/09 10:18:04;;;;;;;1.40;0.80;;;26.40;34.60;;;;;;20802;6733;118254;-90
2022/06/09 10:20:41;;;;;;;2.00;0.90;;;26.20;34.60;;;;;;20989;6733;117352;-88
2022/06/09 10:23:24;;;;;;;2.07;1.03;;;25.80;34.50;;;;;;20729;6751;276216;-89
2022/06/09 10:26:07;;;;;;;5.10;1.10;;;25.70;34.10;;;;;;20674;6737;278765;-88
2022/06/09 10:28:48;;;;;;;3.27;0.97;;;25.70;35.10;;;;;;20854;6754;117434;-89
2022/06/09 10:31:44;;;;;;;1.60;1.10;;;25.20;36.60;;;;;;20735;6729;277066;-88
2022/06/09 10:34:26;;;;;;;1.67;1.00;;;24.90;39.70;;;;;;20950;6729;116014;-88
2022/06/09 10:37:21;;;;;;;2.73;1.20;;;24.40;39.90;;;;;;20079;6842;307769;-90
2022/06/09 10:40:00;;;;;;;1.83;0.70;;;24.50;41.90;;;;;;20888;6746;123030;-87
2022/06/09 10:42:45;;;;;;;1.13;0.90;;;24.60;41.50;;;;;;20878;6751;121012;-88
2022/06/09 10:45:34;;;;;;;1.90;1.10;;;24.70;40.50;;;;;;20666;6751;307464;-88
2022/06/09 10:57:37;;;;;;;1.67;0.82;;;26.20;33.10;;;;;;20564;6751;307597;-89
2022/06/09 11:00:13;;;;;;;2.43;0.70;;;26.00;32.60;;;;;;20867;6751;121392;-89
2022/06/09 11:02:51;;;;;;;1.40;0.77;;;25.50;33.70;;;;;;20856;6751;118330;-88
2022/06/09 11:05:38;;;;;;;2.03;0.90;;;25.00;34.40;;;;;;20653;6751;307852;-89
2022/06/09 11:08:16;;;;;;;1.42;1.00;;;25.00;34.20;;;;;;20660;6751;336026;-88
2022/06/09 11:10:52;;;;;;;2.10;1.00;;;25.20;34.20;;;;;;20635;6751;277650;-88
2022/06/09 11:13:44;;;;;;;2.77;0.87;;;25.40;34.60;;;;;;20874;6751;120945;-88
2022/06/09 11:16:31;;;;;;;2.47;0.80;;;25.20;34.80;;;;;;20608;6751;281690;-88
2022/06/09 11:19:16;;;;;;;1.13;0.90;;;25.20;35.00;;;;;;20638;6754;278637;-89
2022/06/09 11:22:02;;;;;;;1.20;0.80;;;25.60;33.40;;;;;;20726;6729;305741;-90
2022/06/09 11:24:47;;;;;;;3.03;0.83;;;25.80;32.20;;;;;;20909;6729;119984;-88
2022/06/09 11:27:40;;;;;;;1.70;0.70;;;25.80;33.90;;;;;;20576;6729;279908;-88
2022/06/09 11:30:26;;;;;;;1.80;1.00;;;25.90;32.70;;;;;;20646;6751;307169;-90
2022/06/09 11:33:03;;;;;;;1.90;0.80;;;26.10;32.50;;;;;;20902;6737;120057;-89
2022/06/09 11:35:44;;;;;;;3.40;1.10;;;26.10;32.40;;;;;;20644;6753;282159;-88
2022/06/09 11:38:33;;;;;;;2.15;1.00;;;26.10;31.00;;;;;;20653;6751;312040;-88
2022/06/09 11:41:25;;;;;;;0.90;0.90;;;25.80;32.60;;;;;;20844;6751;116985;-88
2022/06/09 11:44:31;;;;;;;0.80;0.80;;;25.80;32.50;;;;;;20869;6751;117291;-88
2022/06/09 11:47:09;;;;;;;2.27;1.20;;;25.30;33.40;;;;;;20547;6736;304571;-88
2022/06/09 11:49:48;;;;;;;1.33;0.80;;;25.20;31.60;;;;;;20924;6737;117084;-88
2022/06/09 11:52:29;;;;;;;1.55;1.00;;;25.00;32.80;;;;;;20663;6751;308202;-88
2022/06/09 11:55:06;;;;;;;2.23;1.00;;;25.10;33.80;;;;;;20701;6736;279303;-88
2022/06/09 11:57:48;;;;;;;1.92;0.98;;;25.40;34.10;;;;;;20483;6807;337988;-88
2022/06/09 12:00:28;;;;;;;2.50;1.27;;;25.70;33.40;;;;;;20952;6729;117426;-90
2022/06/09 12:03:23;;;;;;;1.47;1.00;;;25.60;33.50;;;;;;20945;6730;122526;-88
2022/06/09 12:06:12;;;;;;;2.97;1.10;;;25.30;34.00;;;;;;20983;6731;66888;-92
2022/06/09 12:09:04;;;;;;;0.80;0.80;;;25.00;34.20;;;;;;21007;6731;116376;-91
2022/06/09 12:11:49;;;;;;;1.07;0.80;;;24.70;34.50;;;;;;20965;6731;116948;-88
2022/06/09 12:14:24;;;;;;;1.48;0.90;;;24.50;34.60;;;;;;20712;6736;284253;-88
2022/06/09 12:17:16;;;;;;;1.50;1.10;;;24.70;34.10;;;;;;20584;6736;279299;-88
2022/06/09 12:19:55;;;;;;;1.65;0.98;;;25.00;33.30;;;;;;20712;6736;307340;-88
2022/06/09 12:22:41;;;;;;;2.20;1.00;;;25.30;33.40;;;;;;20706;6736;278886;-88
2022/06/09 12:25:17;;;;;;;1.90;0.93;;;25.50;32.80;;;;;;20712;6736;309042;-88
2022/06/09 12:27:52;;;;;;;3.47;1.00;;;25.60;33.30;;;;;;20539;6736;279667;-88
2022/06/09 12:30:32;;;;;;;1.93;0.90;;;25.40;34.10;;;;;;20877;6751;119880;-88
2022/06/09 12:33:11;;;;;;;2.03;1.10;;;24.90;34.60;;;;;;20826;6766;116941;-88
2022/06/09 12:35:47;;;;;;;1.90;1.10;;;24.90;34.60;;;;;;20608;6766;277962;-89
2022/06/09 12:38:32;;;;;;;3.53;1.17;;;24.80;34.40;;;;;;20850;6759;117107;-88
2022/06/09 12:41:08;;;;;;;2.20;1.23;;;24.50;35.00;;;;;;20809;6762;117544;-88
2022/06/09 12:43:44;;;;;;;2.10;1.30;;;24.10;35.80;;;;;;20615;6766;310902;-89
2022/06/09 12:46:19;;;;;;;1.83;0.80;;;24.10;36.70;;;;;;20773;6766;118267;-88
2022/06/09 12:48:55;;;;;;;1.87;1.13;;;23.90;37.00;;;;;;20676;6742;276497;-88
2022/06/09 12:51:31;;;;;;;2.80;1.37;;;24.00;37.30;;;;;;20630;6757;306589;-88
2022/06/09 12:54:15;;;;;;;1.50;1.10;;;24.10;37.30;;;;;;20882;6750;117108;-88
2022/06/09 12:56:51;;;;;;;2.07;1.13;;;23.80;38.30;;;;;;20738;6806;117542;-88
2022/06/09 12:59:27;;;;;;;1.70;1.12;;;23.70;38.10;;;;;;20617;6757;335878;-88
2022/06/09 13:02:26;;;;;;;2.50;1.00;;;23.90;38.20;;;;;;20535;6787;307364;-89
2022/06/09 13:05:22;;;;;;;3.37;1.00;;;24.30;35.00;;;;;;20601;6759;278236;-88
2022/06/09 13:08:07;;;;;;;1.50;1.40;;;24.50;35.90;;;;;;20464;6759;309600;-88
2022/06/09 13:10:33;;;;;;;1.53;1.20;;;24.70;37.70;;;;;;20842;6757;118142;-90
2022/06/09 13:13:18;;;;;;;1.70;1.20;;;24.60;37.80;;;;;;20634;6757;279699;-88
2022/06/09 13:16:00;;;;;;;2.17;1.37;;;24.70;38.40;;;;;;20592;6757;284410;-89
2022/06/09 13:18:36;;;;;;;3.43;1.13;;;24.90;37.60;;;;;;20608;6766;309095;-88
2022/06/09 13:21:11;;;;;;;2.70;1.30;;;25.10;38.20;;;;;;20594;6769;336179;-89
2022/06/09 13:23:47;;;;;;;2.10;1.10;;;25.30;37.20;;;;;;20516;6799;279173;-88
2022/06/09 13:26:25;;;;;;;2.20;1.30;;;25.40;36.60;;;;;;20496;6781;304919;-88
2022/06/09 13:29:01;;;;;;;1.37;1.12;;;25.30;36.80;;;;;;20648;6751;279969;-87
2022/06/09 13:31:37;;;;;;;2.45;1.90;;;25.10;37.00;;;;;;20550;6781;337462;-87
2022/06/09 13:34:13;;;;;;;2.30;1.37;;;24.60;37.70;;;;;;20578;6774;298546;-87
2022/06/09 13:36:58;;;;;;;1.90;1.37;;;24.60;37.90;;;;;;20489;6766;278329;-89
2022/06/09 13:39:31;;;;;;;2.92;1.10;;;24.40;38.20;;;;;;20564;6780;330948;-90
2022/06/09 13:42:17;;;;;;;1.30;1.00;;;24.30;39.40;;;;;;20790;6769;117074;-89
2022/06/09 13:45:08;;;;;;;1.93;1.10;;;24.00;39.60;;;;;;20737;6785;121969;-89
2022/06/09 13:47:40;;;;;;;2.83;1.15;;;23.60;40.10;;;;;;20445;6783;281517;-88
2022/06/09 13:50:17;;;;;;;2.43;1.30;;;23.70;40.50;;;;;;20593;6804;307001;-88
2022/06/09 13:52:52;;;;;;;2.83;1.10;;;24.00;38.90;;;;;;20865;6748;117544;-91
2022/06/09 13:55:38;;;;;;;1.53;0.97;;;23.90;39.10;;;;;;20732;6830;117107;-89
2022/06/09 13:58:04;;;;;;;2.17;0.93;;;23.70;39.60;;;;;;20582;6854;114368;-89
2022/06/09 14:00:49;;;;;;;1.73;1.20;;;23.40;40.10;;;;;;20752;6781;118219;-89
2022/06/09 14:03:27;;;;;;;2.10;1.50;;;23.20;40.70;;;;;;20526;6798;308913;-89